createdAt,value
2022-11-07T00:00:50.345Z,0.00
2022-11-07T00:01:50.851Z,0.00
2022-11-07T00:02:49.824Z,0.00
2022-11-07T00:03:49.826Z,0.00
2022-11-07T00:04:49.791Z,0.00
2022-11-07T00:05:49.814Z,0.00
2022-11-07T00:06:49.790Z,0.00
2022-11-07T00:07:49.765Z,0.00
2022-11-07T00:08:49.760Z,0.00
2022-11-07T00:09:49.786Z,0.00
2022-11-07T00:10:49.731Z,0.00
2022-11-07T00:11:49.743Z,0.00
2022-11-07T00:12:49.758Z,0.00
2022-11-07T00:13:49.702Z,0.00
2022-11-07T00:14:49.694Z,0.00
2022-11-07T00:15:49.733Z,0.00
2022-11-07T00:16:49.696Z,0.00
2022-11-07T00:17:49.685Z,0.00
2022-11-07T00:18:49.695Z,0.00
2022-11-07T00:19:49.654Z,0.00
2022-11-07T00:20:49.643Z,0.00
2022-11-07T00:21:49.694Z,0.00
2022-11-07T00:22:49.643Z,0.00
2022-11-07T00:23:49.676Z,0.00
2022-11-07T00:24:49.638Z,0.00
2022-11-07T00:25:49.629Z,0.00
2022-11-07T00:26:49.628Z,0.00
2022-11-07T00:27:49.597Z,0.00
2022-11-07T00:28:49.575Z,0.00
2022-11-07T00:29:50.605Z,0.00
2022-11-07T00:30:50.160Z,0.00
2022-11-07T00:31:49.562Z,0.00
2022-11-07T00:32:49.553Z,0.00
2022-11-07T00:33:49.551Z,0.00
2022-11-07T00:34:49.551Z,0.00
2022-11-07T00:35:49.556Z,0.00
2022-11-07T00:36:49.606Z,0.00
2022-11-07T00:37:49.521Z,0.00
2022-11-07T00:38:49.507Z,0.00
2022-11-07T00:39:49.503Z,0.00
2022-11-07T00:40:49.515Z,0.00
2022-11-07T00:41:49.499Z,0.00
2022-11-07T00:42:49.504Z,0.00
2022-11-07T00:43:49.479Z,0.00
2022-11-07T00:44:49.472Z,0.00
2022-11-07T00:45:49.463Z,0.00
2022-11-07T00:46:49.460Z,0.00
2022-11-07T00:47:49.472Z,0.00
2022-11-07T00:48:49.470Z,0.00
2022-11-07T00:49:49.425Z,0.00
2022-11-07T00:50:49.407Z,0.00
2022-11-07T00:51:49.413Z,0.00
2022-11-07T00:52:49.421Z,0.00
2022-11-07T00:53:49.420Z,0.00
2022-11-07T00:54:49.393Z,0.00
2022-11-07T00:55:50.082Z,0.00
2022-11-07T00:56:49.402Z,0.00
2022-11-07T00:57:49.366Z,0.00
2022-11-07T00:58:49.360Z,0.00
2022-11-07T00:59:49.358Z,4.00
2022-11-07T01:00:49.403Z,0.00
2022-11-07T01:01:49.471Z,0.00
2022-11-07T01:02:49.424Z,0.00
2022-11-07T01:03:49.322Z,0.00
2022-11-07T01:04:49.355Z,0.00
2022-11-07T01:05:49.312Z,0.00
2022-11-07T01:06:49.305Z,0.00
2022-11-07T01:07:49.352Z,0.00
2022-11-07T01:08:49.313Z,0.00
2022-11-07T01:09:49.285Z,0.00
2022-11-07T01:10:49.299Z,0.00
2022-11-07T01:11:49.277Z,0.00
2022-11-07T01:12:49.246Z,0.00
2022-11-07T01:13:49.276Z,0.00
2022-11-07T01:14:49.241Z,0.00
2022-11-07T01:15:49.239Z,0.00
2022-11-07T01:16:50.167Z,0.00
2022-11-07T01:17:49.235Z,0.00
2022-11-07T01:18:49.238Z,0.00
2022-11-07T01:19:49.247Z,0.00
2022-11-07T01:20:49.209Z,0.00
2022-11-07T01:21:49.362Z,0.00
2022-11-07T01:22:49.203Z,0.00
2022-11-07T01:23:49.180Z,0.00
2022-11-07T01:24:49.165Z,0.00
2022-11-07T01:25:49.197Z,0.00
2022-11-07T01:26:49.203Z,0.00
2022-11-07T01:27:49.139Z,0.00
2022-11-07T01:28:49.154Z,0.00
2022-11-07T01:29:49.144Z,0.00
2022-11-07T01:30:49.115Z,0.00
2022-11-07T01:31:49.143Z,0.00
2022-11-07T01:32:49.105Z,0.00
2022-11-07T01:33:49.713Z,0.00
2022-11-07T01:34:49.106Z,0.00
2022-11-07T01:35:49.110Z,0.00
2022-11-07T01:36:49.082Z,0.00
2022-11-07T01:37:49.078Z,0.00
2022-11-07T01:38:49.055Z,0.00
2022-11-07T01:39:49.042Z,0.00
2022-11-07T01:40:49.665Z,0.00
2022-11-07T01:41:49.056Z,0.00
2022-11-07T01:42:49.026Z,0.00
2022-11-07T01:43:49.071Z,0.00
2022-11-07T02:02:18.694Z,0.00
2022-11-07T02:03:18.456Z,0.00
2022-11-07T02:04:20.518Z,0.00
2022-11-07T02:05:19.565Z,0.00
2022-11-07T02:06:19.532Z,0.00
2022-11-07T02:07:19.542Z,0.00
2022-11-07T02:08:19.532Z,0.00
2022-11-07T02:09:19.516Z,0.00
2022-11-07T02:10:19.540Z,0.00
2022-11-07T02:11:19.492Z,0.00
2022-11-07T02:12:19.527Z,0.00
2022-11-07T02:13:19.480Z,0.00
2022-11-07T02:14:19.484Z,0.00
2022-11-07T02:15:51.400Z,0.00
2022-11-07T02:16:19.468Z,0.00
2022-11-07T02:17:19.482Z,0.00
2022-11-07T02:18:19.464Z,0.00
2022-11-07T02:19:19.435Z,0.00
2022-11-07T02:20:20.165Z,0.00
2022-11-07T02:21:19.480Z,0.00
2022-11-07T02:22:19.411Z,0.00
2022-11-07T02:23:19.427Z,0.00
2022-11-07T02:24:19.460Z,0.00
2022-11-07T02:25:19.400Z,0.00
2022-11-07T02:26:19.412Z,0.00
2022-11-07T02:27:19.396Z,0.00
2022-11-07T02:28:19.377Z,0.00
2022-11-07T02:29:19.357Z,0.00
2022-11-07T02:30:19.396Z,0.00
2022-11-07T02:31:19.348Z,0.00
2022-11-07T02:32:19.329Z,0.00
2022-11-07T02:33:19.342Z,0.00
2022-11-07T02:34:19.418Z,0.00
2022-11-07T02:35:20.318Z,0.00
2022-11-07T02:36:19.292Z,0.00
2022-11-07T02:37:19.327Z,0.00
2022-11-07T02:38:19.309Z,0.00
2022-11-07T02:39:19.303Z,0.00
2022-11-07T02:40:19.288Z,0.00
2022-11-07T02:41:19.288Z,0.00
2022-11-07T02:42:19.257Z,0.00
2022-11-07T02:43:19.263Z,0.00
2022-11-07T02:44:19.259Z,0.00
2022-11-07T02:45:19.255Z,0.00
2022-11-07T02:46:19.215Z,0.00
2022-11-07T02:47:19.210Z,0.00
2022-11-07T02:48:19.216Z,0.00
2022-11-07T02:49:19.206Z,0.00
2022-11-07T02:50:19.209Z,0.00
2022-11-07T02:51:19.213Z,0.00
2022-11-07T02:52:19.182Z,0.00
2022-11-07T02:53:19.177Z,0.00
2022-11-07T02:54:19.161Z,0.00
2022-11-07T02:55:19.188Z,0.00
2022-11-07T02:56:19.151Z,0.00
2022-11-07T02:57:19.146Z,0.00
2022-11-07T02:58:19.124Z,0.00
2022-11-07T02:59:22.962Z,0.00
2022-11-07T03:00:21.167Z,0.00
2022-11-07T03:01:19.159Z,0.00
2022-11-07T03:02:19.261Z,0.00
2022-11-07T03:03:19.116Z,0.00
2022-11-07T03:04:19.092Z,0.00
2022-11-07T03:05:19.094Z,0.00
2022-11-07T03:06:19.101Z,0.00
2022-11-07T03:07:19.097Z,0.00
2022-11-07T03:08:19.066Z,0.00
2022-11-07T03:09:19.050Z,0.00
2022-11-07T03:10:19.048Z,0.00
2022-11-07T03:11:19.072Z,0.00
2022-11-07T03:12:19.087Z,0.00
2022-11-07T03:13:19.027Z,0.00
2022-11-07T03:14:19.033Z,0.00
2022-11-07T03:15:19.022Z,0.00
2022-11-07T03:16:19.002Z,0.00
2022-11-07T03:17:20.030Z,0.00
2022-11-07T03:18:19.037Z,0.00
2022-11-07T03:19:18.986Z,0.00
2022-11-07T03:20:19.509Z,0.00
2022-11-07T03:21:18.984Z,0.00
2022-11-07T03:22:18.961Z,0.00
2022-11-07T03:23:18.974Z,0.00
2022-11-07T03:24:18.989Z,0.00
2022-11-07T03:25:18.954Z,0.00
2022-11-07T03:26:18.927Z,0.00
2022-11-07T03:27:18.910Z,0.00
2022-11-07T03:28:18.939Z,0.00
2022-11-07T03:29:18.900Z,0.00
2022-11-07T03:30:18.907Z,0.00
2022-11-07T03:31:19.897Z,0.00
2022-11-07T03:32:18.866Z,0.00
2022-11-07T03:33:18.872Z,0.00
2022-11-07T03:34:18.866Z,0.00
2022-11-07T03:35:18.868Z,0.00
2022-11-07T03:36:18.855Z,0.00
2022-11-07T03:37:18.879Z,0.00
2022-11-07T03:38:18.960Z,0.00
2022-11-07T03:39:24.633Z,0.00
2022-11-07T03:40:20.845Z,0.00
2022-11-07T03:41:18.833Z,0.00
2022-11-07T03:42:18.827Z,0.00
2022-11-07T03:43:18.808Z,0.00
2022-11-07T03:44:18.779Z,0.00
2022-11-07T03:45:18.803Z,0.00
2022-11-07T03:46:18.779Z,0.00
2022-11-07T03:47:18.763Z,0.00
2022-11-07T04:02:39.508Z,0.00
2022-11-07T04:03:39.226Z,0.00
2022-11-07T04:04:39.247Z,0.00
2022-11-07T04:05:39.224Z,0.00
2022-11-07T04:06:40.347Z,0.00
2022-11-07T04:07:40.357Z,0.00
2022-11-07T04:08:40.317Z,0.00
2022-11-07T04:09:40.300Z,0.00
2022-11-07T04:10:40.359Z,0.00
2022-11-07T04:11:40.293Z,0.00
2022-11-07T04:12:41.330Z,0.00
2022-11-07T04:13:40.281Z,0.00
2022-11-07T04:14:40.286Z,0.00
2022-11-07T04:15:40.413Z,0.00
2022-11-07T04:16:40.279Z,0.00
2022-11-07T04:17:40.258Z,0.00
2022-11-07T04:18:40.251Z,0.00
2022-11-07T04:19:41.222Z,0.00
2022-11-07T04:20:40.230Z,0.00
2022-11-07T04:21:40.230Z,0.00
2022-11-07T04:22:40.249Z,0.00
2022-11-07T04:23:40.220Z,0.00
2022-11-07T04:24:45.424Z,0.00
2022-11-07T04:25:42.206Z,0.00
2022-11-07T04:26:40.272Z,0.00
2022-11-07T04:27:40.294Z,0.00
2022-11-07T04:28:40.179Z,0.00
2022-11-07T04:29:40.148Z,0.00
2022-11-07T04:30:40.166Z,0.00
2022-11-07T04:31:40.151Z,0.00
2022-11-07T04:32:40.148Z,0.00
2022-11-07T04:33:40.156Z,0.00
2022-11-07T04:34:40.159Z,0.00
2022-11-07T04:35:40.119Z,0.00
2022-11-07T04:36:40.114Z,0.00
2022-11-07T04:37:40.095Z,0.00
2022-11-07T04:38:40.092Z,0.00
2022-11-07T04:39:40.093Z,0.00
2022-11-07T04:40:40.117Z,0.00
2022-11-07T04:41:41.082Z,0.00
2022-11-07T04:42:40.084Z,0.00
2022-11-07T04:43:40.043Z,0.00
2022-11-07T04:44:40.037Z,0.00
2022-11-07T04:45:40.081Z,0.00
2022-11-07T04:46:40.042Z,0.00
2022-11-07T04:47:40.752Z,0.00
2022-11-07T04:48:41.027Z,0.00
2022-11-07T04:49:40.003Z,0.00
2022-11-07T04:50:40.000Z,0.00
2022-11-07T04:51:39.997Z,0.00
2022-11-07T04:52:39.979Z,0.00
2022-11-07T04:53:39.964Z,0.00
2022-11-07T04:54:39.956Z,0.00
2022-11-07T04:55:39.947Z,0.00
2022-11-07T04:56:39.959Z,0.00
2022-11-07T04:57:40.041Z,0.00
2022-11-07T04:58:39.912Z,0.00
2022-11-07T04:59:39.904Z,0.00
2022-11-07T05:00:39.893Z,0.00
2022-11-07T05:01:39.958Z,0.00
2022-11-07T05:02:39.965Z,0.00
2022-11-07T05:03:42.132Z,0.00
2022-11-07T05:04:40.870Z,0.00
2022-11-07T05:05:39.890Z,0.00
2022-11-07T05:06:40.788Z,0.00
2022-11-07T05:07:39.880Z,0.00
2022-11-07T05:08:39.876Z,0.00
2022-11-07T05:09:39.843Z,0.00
2022-11-07T05:10:39.861Z,0.00
2022-11-07T05:11:39.831Z,0.00
2022-11-07T05:12:39.818Z,0.00
2022-11-07T05:13:39.839Z,0.00
2022-11-07T05:14:39.811Z,0.00
2022-11-07T05:15:39.822Z,0.00
2022-11-07T05:16:39.777Z,0.00
2022-11-07T05:17:39.765Z,0.00
2022-11-07T05:18:39.780Z,0.00
2022-11-07T05:19:40.434Z,0.00
2022-11-07T05:20:39.744Z,0.00
2022-11-07T05:21:39.749Z,0.00
2022-11-07T05:22:39.731Z,0.00
2022-11-07T05:23:39.773Z,0.00
2022-11-07T05:24:39.724Z,0.00
2022-11-07T05:25:39.748Z,0.00
2022-11-07T05:26:40.003Z,0.00
2022-11-07T05:27:39.705Z,0.00
2022-11-07T05:28:40.084Z,0.00
2022-11-07T05:29:39.670Z,0.00
2022-11-07T05:30:39.732Z,0.00
2022-11-07T05:31:39.693Z,0.00
2022-11-07T05:32:39.638Z,0.00
2022-11-07T05:33:39.655Z,0.00
2022-11-07T05:34:39.670Z,0.00
2022-11-07T05:35:39.669Z,0.00
2022-11-07T05:36:40.437Z,0.00
2022-11-07T05:37:39.609Z,0.00
2022-11-07T05:38:39.746Z,0.00
2022-11-07T05:39:39.581Z,0.00
2022-11-07T05:40:39.588Z,0.00
2022-11-07T05:41:39.601Z,0.00
2022-11-07T05:42:39.650Z,0.00
2022-11-07T05:43:39.580Z,0.00
2022-11-07T05:44:39.570Z,4.00
2022-11-07T05:45:39.583Z,4.00
2022-11-07T05:46:39.578Z,4.00
2022-11-07T05:47:39.571Z,0.00
2022-11-07T05:48:39.537Z,4.00
2022-11-07T05:49:39.539Z,4.00
2022-11-07T05:50:39.535Z,4.00
2022-11-07T05:51:39.518Z,4.00
2022-11-07T05:52:39.542Z,8.00
2022-11-07T05:53:39.517Z,8.00
2022-11-07T05:54:39.563Z,8.00
2022-11-07T05:55:39.515Z,8.00
2022-11-07T05:56:39.477Z,8.00
2022-11-07T05:57:39.496Z,12.00
2022-11-07T05:58:39.458Z,8.00
2022-11-07T05:59:39.476Z,8.00
2022-11-07T06:00:39.443Z,12.00
2022-11-07T06:01:39.572Z,8.00
2022-11-07T06:02:39.661Z,12.00
2022-11-07T06:03:39.454Z,12.00
2022-11-07T06:04:39.426Z,16.00
2022-11-07T06:05:39.420Z,20.00
2022-11-07T06:06:39.406Z,28.00
2022-11-07T06:07:39.416Z,32.00
2022-11-07T06:08:39.387Z,28.00
2022-11-07T06:09:39.402Z,32.00
2022-11-07T06:10:39.399Z,36.00
2022-11-07T06:11:39.350Z,44.00
2022-11-07T06:12:39.364Z,56.00
2022-11-07T06:13:39.332Z,72.00
2022-11-07T06:14:39.362Z,104.00
2022-11-07T06:15:39.336Z,116.00
2022-11-07T06:16:39.348Z,120.00
2022-11-07T06:17:39.300Z,124.00
2022-11-07T06:18:41.744Z,132.00
2022-11-07T06:19:40.329Z,132.00
2022-11-07T06:20:39.273Z,136.00
2022-11-07T06:21:39.301Z,140.00
2022-11-07T06:22:39.270Z,148.00
2022-11-07T06:23:39.274Z,156.00
2022-11-07T06:24:39.297Z,168.00
2022-11-07T06:25:39.271Z,184.00
2022-11-07T06:26:39.236Z,220.00
2022-11-07T06:27:39.272Z,236.00
2022-11-07T06:28:39.249Z,276.00
2022-11-07T06:29:39.251Z,328.00
2022-11-07T06:30:39.217Z,336.00
2022-11-07T06:31:39.251Z,332.00
2022-11-07T06:32:39.195Z,388.00
2022-11-07T06:33:39.225Z,464.00
2022-11-07T06:34:39.173Z,544.00
2022-11-07T06:35:39.181Z,628.00
2022-11-07T06:36:39.162Z,672.00
2022-11-07T06:37:39.186Z,744.00
2022-11-07T06:38:39.153Z,860.00
2022-11-07T06:39:39.195Z,924.00
2022-11-07T06:40:39.146Z,968.00
2022-11-07T06:41:39.118Z,1036.00
2022-11-07T06:42:39.204Z,1172.00
2022-11-07T06:43:39.198Z,1332.00
2022-11-07T06:44:39.093Z,1488.00
2022-11-07T06:45:39.116Z,1644.00
2022-11-07T06:46:39.090Z,1724.00
2022-11-07T06:47:39.125Z,1684.00
2022-11-07T06:48:39.103Z,1780.00
2022-11-07T06:49:39.066Z,1888.00
2022-11-07T06:50:39.054Z,1788.00
2022-11-07T06:51:41.701Z,1796.00
2022-11-07T06:52:39.087Z,2236.00
2022-11-07T06:53:39.039Z,2600.00
2022-11-07T06:54:39.023Z,2728.00
2022-11-07T06:55:39.038Z,2960.00
2022-11-07T06:56:39.008Z,3072.00
2022-11-07T06:57:39.018Z,3580.00
2022-11-07T06:58:39.027Z,4188.00
2022-11-07T06:59:38.993Z,4736.00
2022-11-07T07:00:39.084Z,4768.00
2022-11-07T07:01:39.176Z,5032.00
2022-11-07T07:02:57.479Z,5120.00
2022-11-07T07:03:40.961Z,5284.00
2022-11-07T07:04:38.963Z,6684.00
2022-11-07T07:05:38.969Z,8648.00
2022-11-07T07:06:38.956Z,12672.00
2022-11-07T07:07:38.946Z,18944.00
2022-11-07T07:08:38.951Z,21792.00
2022-11-07T07:09:38.898Z,18880.00
2022-11-07T07:10:38.902Z,17536.00
2022-11-07T07:11:38.922Z,16224.00
2022-11-07T07:12:38.882Z,24160.00
2022-11-07T07:13:38.910Z,27136.00
2022-11-07T07:14:38.953Z,28864.00
2022-11-07T07:15:50.310Z,32416.00
2022-11-07T07:16:40.850Z,28992.00
2022-11-07T07:17:38.869Z,23136.00
2022-11-07T07:18:38.870Z,21440.00
2022-11-07T07:19:38.824Z,22592.00
2022-11-07T07:20:38.824Z,25472.00
2022-11-07T07:21:38.858Z,22016.00
2022-11-07T07:22:38.821Z,12380.00
2022-11-07T07:23:38.797Z,12928.00
2022-11-07T07:24:38.802Z,9652.00
2022-11-07T07:25:39.341Z,6828.00
2022-11-07T07:26:38.797Z,4884.00
2022-11-07T07:27:38.797Z,3116.00
2022-11-07T07:28:38.755Z,2784.00
2022-11-07T07:29:38.814Z,2736.00
2022-11-07T07:30:38.868Z,3068.00
2022-11-07T07:31:38.763Z,2752.00
2022-11-07T07:32:38.742Z,9656.00
2022-11-07T07:33:38.732Z,4996.00
2022-11-07T07:34:39.719Z,4696.00
2022-11-07T07:35:38.756Z,4592.00
2022-11-07T07:36:38.725Z,4796.00
2022-11-07T07:37:38.691Z,6608.00
2022-11-07T07:38:38.688Z,8272.00
2022-11-07T07:39:39.686Z,40640.00
2022-11-07T07:40:38.710Z,39584.00
2022-11-07T07:41:40.295Z,26240.00
2022-11-07T07:42:39.644Z,16640.00
2022-11-07T07:43:38.678Z,13152.00
2022-11-07T07:44:38.619Z,28000.00
2022-11-07T07:45:38.641Z,32320.00
2022-11-07T07:46:38.775Z,29056.00
2022-11-07T07:47:38.621Z,18624.00
2022-11-07T07:48:38.612Z,22528.00
2022-11-07T07:49:38.617Z,19232.00
2022-11-07T07:50:38.613Z,15104.00
2022-11-07T07:51:38.632Z,21216.00
2022-11-07T07:52:38.567Z,27200.00
2022-11-07T07:53:38.602Z,14528.00
2022-11-07T07:54:38.553Z,23968.00
2022-11-07T07:55:38.587Z,16480.00
2022-11-07T07:56:38.562Z,21024.00
2022-11-07T07:57:38.519Z,47360.00
2022-11-07T07:58:38.534Z,45440.00
2022-11-07T07:59:38.524Z,49728.00
2022-11-07T08:00:38.563Z,49568.00
2022-11-07T08:01:38.597Z,50656.00
2022-11-07T08:02:39.645Z,54528.00
2022-11-07T08:03:59.518Z,55328.00
2022-11-07T08:04:40.502Z,55968.00
2022-11-07T08:05:38.552Z,50592.00
2022-11-07T08:06:38.519Z,51328.00
2022-11-07T08:07:38.530Z,40096.00
2022-11-07T08:08:38.605Z,39200.00
2022-11-07T08:09:38.448Z,41824.00
2022-11-07T08:10:43.001Z,42656.00
2022-11-07T08:11:39.445Z,45024.00
2022-11-07T08:12:38.414Z,42112.00
2022-11-07T08:13:38.456Z,33248.00
2022-11-07T08:14:38.429Z,25728.00
2022-11-07T08:16:10.423Z,24448.00
2022-11-07T08:16:38.456Z,12116.00
2022-11-07T08:17:38.425Z,8112.00
2022-11-07T08:18:38.462Z,6736.00
2022-11-07T08:19:38.365Z,6084.00
2022-11-07T08:20:38.358Z,5896.00
2022-11-07T08:21:38.362Z,5464.00
2022-11-07T08:22:38.336Z,5140.00
2022-11-07T08:23:38.382Z,4560.00
2022-11-07T08:24:38.342Z,4828.00
2022-11-07T08:25:38.313Z,5616.00
2022-11-07T08:26:38.324Z,6476.00
2022-11-07T08:27:38.321Z,6644.00
2022-11-07T08:28:38.389Z,7200.00
2022-11-07T08:29:38.313Z,7248.00
2022-11-07T08:30:38.342Z,8848.00
2022-11-07T08:31:38.298Z,9108.00
2022-11-07T08:32:38.281Z,14136.00
2022-11-07T08:33:38.361Z,8984.00
2022-11-07T08:34:38.291Z,9052.00
2022-11-07T08:35:42.438Z,8728.00
2022-11-07T08:36:39.266Z,8984.00
2022-11-07T08:37:38.290Z,9428.00
2022-11-07T08:38:38.258Z,11224.00
2022-11-07T08:39:38.264Z,11448.00
2022-11-07T08:40:38.251Z,20672.00
2022-11-07T08:41:38.209Z,12948.00
2022-11-07T08:42:38.269Z,14696.00
2022-11-07T08:43:38.197Z,11672.00
2022-11-07T08:44:38.192Z,10192.00
2022-11-07T08:45:38.203Z,10104.00
2022-11-07T08:46:38.289Z,9788.00
2022-11-07T08:47:38.164Z,14724.00
2022-11-07T08:48:38.206Z,13424.00
2022-11-07T08:49:38.152Z,16608.00
2022-11-07T08:50:38.260Z,11948.00
2022-11-07T08:51:38.168Z,11356.00
2022-11-07T08:52:39.174Z,28960.00
2022-11-07T08:53:38.094Z,13216.00
2022-11-07T08:54:38.114Z,18848.00
2022-11-07T08:55:38.125Z,15508.00
2022-11-07T08:56:38.128Z,17632.00
2022-11-07T08:57:38.055Z,21056.00
2022-11-07T08:58:38.094Z,13632.00
2022-11-07T08:59:38.050Z,34592.00
2022-11-07T09:00:38.115Z,11592.00
2022-11-07T09:01:55.992Z,9100.00
2022-11-07T09:03:54.662Z,7208.00
2022-11-07T09:04:40.162Z,9104.00
2022-11-07T09:05:38.031Z,7872.00
2022-11-07T09:06:37.997Z,7376.00
2022-11-07T09:07:37.992Z,8160.00
2022-11-07T09:08:37.982Z,8216.00
2022-11-07T09:09:37.970Z,9708.00
2022-11-07T09:10:37.994Z,6932.00
2022-11-07T09:11:37.978Z,5560.00
2022-11-07T09:12:37.988Z,4620.00
2022-11-07T09:13:37.989Z,3960.00
2022-11-07T09:14:37.921Z,3680.00
2022-11-07T09:15:37.913Z,3612.00
2022-11-07T09:16:37.945Z,3560.00
2022-11-07T09:17:37.904Z,3400.00
2022-11-07T09:18:37.895Z,3432.00
2022-11-07T09:19:37.946Z,3760.00
2022-11-07T09:20:37.899Z,4116.00
2022-11-07T09:21:38.126Z,4388.00
2022-11-07T09:22:37.916Z,4344.00
2022-11-07T09:23:37.878Z,4340.00
2022-11-07T09:24:37.889Z,4296.00
2022-11-07T09:25:37.874Z,4760.00
2022-11-07T09:26:37.876Z,4476.00
2022-11-07T09:27:37.828Z,4240.00
2022-11-07T09:28:37.839Z,3776.00
2022-11-07T09:29:37.848Z,3488.00
2022-11-07T09:30:37.804Z,3136.00
2022-11-07T09:31:37.819Z,2864.00
2022-11-07T09:32:45.126Z,2720.00
2022-11-07T09:33:39.824Z,2972.00
2022-11-07T09:34:37.819Z,3088.00
2022-11-07T09:35:37.751Z,3556.00
2022-11-07T09:36:37.800Z,3924.00
2022-11-07T09:37:37.732Z,3808.00
2022-11-07T09:38:37.760Z,4052.00
2022-11-07T09:39:37.776Z,3924.00
2022-11-07T09:40:37.757Z,3640.00
2022-11-07T09:41:37.721Z,3436.00
2022-11-07T09:42:38.485Z,3136.00
2022-11-07T09:43:37.695Z,2868.00
2022-11-07T09:44:37.844Z,2640.00
2022-11-07T09:45:37.698Z,2492.00
2022-11-07T09:46:37.701Z,2596.00
2022-11-07T09:47:37.699Z,2748.00
2022-11-07T09:48:37.672Z,2864.00
2022-11-07T09:49:37.671Z,2824.00
2022-11-07T09:50:37.648Z,2808.00
2022-11-07T09:51:37.678Z,2816.00
2022-11-07T09:52:37.672Z,2752.00
2022-11-07T09:53:37.652Z,2668.00
2022-11-07T09:54:37.614Z,2648.00
2022-11-07T09:55:37.604Z,2500.00
2022-11-07T09:56:37.633Z,2464.00
2022-11-07T09:57:37.661Z,2524.00
2022-11-07T09:58:37.698Z,2684.00
2022-11-07T09:59:37.607Z,2756.00
2022-11-07T10:00:37.672Z,2992.00
2022-11-07T10:01:37.718Z,3040.00
2022-11-07T10:02:37.574Z,2892.00
2022-11-07T10:03:37.583Z,2964.00
2022-11-07T10:04:37.563Z,2864.00
2022-11-07T10:05:37.531Z,2888.00
2022-11-07T10:06:37.538Z,3024.00
2022-11-07T10:07:37.516Z,3088.00
2022-11-07T10:08:37.527Z,2908.00
2022-11-07T10:09:37.502Z,2924.00
2022-11-07T10:10:37.512Z,2944.00
2022-11-07T10:11:37.507Z,2996.00
2022-11-07T10:12:43.258Z,2952.00
2022-11-07T10:13:39.482Z,2908.00
2022-11-07T10:14:37.489Z,3048.00
2022-11-07T10:15:37.463Z,3068.00
2022-11-07T10:16:37.512Z,2640.00
2022-11-07T10:17:37.444Z,2376.00
2022-11-07T10:18:37.436Z,2196.00
2022-11-07T10:19:37.435Z,2088.00
2022-11-07T10:20:37.422Z,2172.00
2022-11-07T10:21:38.792Z,2304.00
2022-11-07T10:22:38.377Z,2468.00
2022-11-07T10:23:37.390Z,2616.00
2022-11-07T10:24:37.383Z,2716.00
2022-11-07T10:25:37.380Z,3048.00
2022-11-07T10:26:37.362Z,3332.00
2022-11-07T10:27:37.360Z,3152.00
2022-11-07T10:28:37.378Z,2740.00
2022-11-07T10:29:43.252Z,2664.00
2022-11-07T10:30:39.318Z,2852.00
2022-11-07T10:31:37.323Z,3508.00
2022-11-07T10:32:37.326Z,4192.00
2022-11-07T10:33:37.325Z,5464.00
2022-11-07T10:34:37.297Z,6436.00
2022-11-07T10:35:37.300Z,6896.00
2022-11-07T10:36:37.296Z,7624.00
2022-11-07T10:37:37.289Z,7240.00
2022-11-07T10:38:37.297Z,6988.00
2022-11-07T10:39:37.246Z,6096.00
2022-11-07T10:40:37.247Z,6904.00
2022-11-07T10:41:37.289Z,6924.00
2022-11-07T10:42:37.272Z,7848.00
2022-11-07T10:43:37.238Z,8560.00
2022-11-07T10:44:37.229Z,7600.00
2022-11-07T10:45:37.219Z,7024.00
2022-11-07T10:46:37.201Z,6424.00
2022-11-07T10:47:37.179Z,5828.00
2022-11-07T10:48:37.598Z,5440.00
2022-11-07T10:49:37.168Z,4796.00
2022-11-07T10:50:37.173Z,4400.00
2022-11-07T10:51:37.187Z,4168.00
2022-11-07T10:52:37.162Z,3916.00
2022-11-07T10:53:37.140Z,3864.00
2022-11-07T10:54:37.161Z,3980.00
2022-11-07T10:55:37.143Z,3944.00
2022-11-07T10:56:37.110Z,3612.00
2022-11-07T10:57:37.131Z,3216.00
2022-11-07T10:58:37.135Z,2992.00
2022-11-07T10:59:37.232Z,2772.00
2022-11-07T11:00:37.128Z,2784.00
2022-11-07T11:01:37.296Z,2844.00
2022-11-07T11:02:37.095Z,2888.00
2022-11-07T11:03:44.335Z,2820.00
2022-11-07T11:04:39.049Z,2624.00
2022-11-07T11:05:37.046Z,2604.00
2022-11-07T11:06:37.064Z,2716.00
2022-11-07T11:07:37.020Z,2840.00
2022-11-07T11:08:37.042Z,3044.00
2022-11-07T11:09:37.016Z,3044.00
2022-11-07T11:10:37.009Z,3112.00
2022-11-07T11:11:37.000Z,3264.00
2022-11-07T11:12:37.407Z,3480.00
2022-11-07T11:13:36.992Z,3788.00
2022-11-07T11:14:37.059Z,4028.00
2022-11-07T11:15:36.985Z,4264.00
2022-11-07T11:16:36.976Z,4120.00
2022-11-07T11:17:36.989Z,3808.00
2022-11-07T11:18:37.008Z,3548.00
2022-11-07T11:19:36.944Z,3520.00
2022-11-07T11:20:36.950Z,3568.00
2022-11-07T11:21:36.960Z,3732.00
2022-11-07T11:22:36.961Z,3876.00
2022-11-07T11:23:36.947Z,4072.00
2022-11-07T11:24:36.928Z,4000.00
2022-11-07T11:25:36.919Z,3896.00
2022-11-07T11:26:36.907Z,3824.00
2022-11-07T11:27:36.863Z,3456.00
2022-11-07T11:28:36.879Z,3284.00
2022-11-07T11:29:39.719Z,3232.00
2022-11-07T11:30:37.852Z,3220.00
2022-11-07T11:31:36.869Z,3316.00
2022-11-07T11:32:36.837Z,3168.00
2022-11-07T11:33:36.876Z,3220.00
2022-11-07T11:34:36.840Z,3232.00
2022-11-07T11:35:41.658Z,3268.00
2022-11-07T11:36:38.820Z,3568.00
2022-11-07T11:37:36.809Z,3600.00
2022-11-07T11:38:36.829Z,3416.00
2022-11-07T11:39:36.828Z,3116.00
2022-11-07T11:40:36.770Z,2860.00
2022-11-07T11:41:36.769Z,2792.00
2022-11-07T11:42:36.762Z,2832.00
2022-11-07T11:43:36.778Z,2984.00
2022-11-07T11:44:36.738Z,2920.00
2022-11-07T11:45:36.734Z,2972.00
2022-11-07T11:46:36.940Z,2980.00
2022-11-07T11:47:36.745Z,3092.00
2022-11-07T11:48:36.753Z,3164.00
2022-11-07T11:49:36.706Z,3272.00
2022-11-07T11:50:36.720Z,3472.00
2022-11-07T11:51:36.722Z,3780.00
2022-11-07T11:52:36.704Z,4060.00
2022-11-07T11:53:36.656Z,4484.00
2022-11-07T11:54:36.657Z,4460.00
2022-11-07T11:55:36.725Z,4464.00
2022-11-07T11:56:36.637Z,4204.00
2022-11-07T11:57:36.650Z,4132.00
2022-11-07T11:58:36.672Z,4408.00
2022-11-07T11:59:36.638Z,4844.00
2022-11-07T12:00:36.642Z,4928.00
2022-11-07T12:01:36.688Z,4632.00
2022-11-07T12:02:36.643Z,4308.00
2022-11-07T12:03:36.592Z,4040.00
2022-11-07T12:04:36.603Z,3980.00
2022-11-07T12:05:36.569Z,4136.00
2022-11-07T12:06:36.641Z,4192.00
2022-11-07T12:07:36.601Z,4032.00
2022-11-07T12:08:36.594Z,3924.00
2022-11-07T12:09:36.561Z,3964.00
2022-11-07T12:10:36.535Z,3544.00
2022-11-07T12:11:36.554Z,3088.00
2022-11-07T12:12:36.556Z,3044.00
2022-11-07T12:13:36.515Z,2776.00
2022-11-07T12:14:36.517Z,2612.00
2022-11-07T12:15:36.517Z,2652.00
2022-11-07T12:16:36.516Z,2948.00
2022-11-07T12:17:36.516Z,3180.00
2022-11-07T12:18:36.577Z,3256.00
2022-11-07T12:19:36.448Z,3264.00
2022-11-07T12:20:36.487Z,3560.00
2022-11-07T12:21:36.471Z,4212.00
2022-11-07T12:22:36.453Z,4636.00
2022-11-07T12:23:36.457Z,4980.00
2022-11-07T12:24:36.421Z,4868.00
2022-11-07T12:25:36.414Z,4896.00
2022-11-07T12:26:36.402Z,5788.00
2022-11-07T12:27:36.407Z,5524.00
2022-11-07T12:28:37.420Z,6052.00
2022-11-07T12:29:36.458Z,5728.00
2022-11-07T12:30:36.415Z,7068.00
2022-11-07T12:31:36.522Z,6484.00
2022-11-07T12:32:36.376Z,5960.00
2022-11-07T12:33:36.357Z,6224.00
2022-11-07T12:34:36.376Z,6620.00
2022-11-07T12:35:36.392Z,6280.00
2022-11-07T12:36:37.407Z,6500.00
2022-11-07T12:37:36.320Z,6432.00
2022-11-07T12:38:36.443Z,6176.00
2022-11-07T12:39:36.330Z,6064.00
2022-11-07T12:40:36.322Z,5680.00
2022-11-07T12:41:36.301Z,5452.00
2022-11-07T12:42:36.309Z,5252.00
2022-11-07T12:43:36.358Z,5112.00
2022-11-07T12:44:36.299Z,5120.00
2022-11-07T12:45:36.276Z,5032.00
2022-11-07T12:46:36.274Z,4368.00
2022-11-07T12:47:36.280Z,4244.00
2022-11-07T12:48:36.243Z,4116.00
2022-11-07T12:49:36.298Z,4204.00
2022-11-07T12:50:36.252Z,5928.00
2022-11-07T12:51:36.298Z,4844.00
2022-11-07T12:52:36.220Z,4592.00
2022-11-07T12:53:36.207Z,4656.00
2022-11-07T12:54:36.202Z,4652.00
2022-11-07T12:55:36.182Z,4776.00
2022-11-07T12:56:36.207Z,4936.00
2022-11-07T12:57:36.192Z,4892.00
2022-11-07T12:58:36.163Z,4580.00
2022-11-07T12:59:36.171Z,4372.00
2022-11-07T13:00:36.164Z,4132.00
2022-11-07T13:01:36.233Z,4240.00
2022-11-07T13:02:36.208Z,3920.00
2022-11-07T13:03:36.119Z,4232.00
2022-11-07T13:04:36.121Z,3864.00
2022-11-07T13:05:36.130Z,3732.00
2022-11-07T13:06:36.153Z,3560.00
2022-11-07T13:07:36.121Z,3232.00